Round Mountain, CA (96084)

1:21 AM PST on December 28, 2014 (GMT -0800)
Bella Vista nr BV school | Change Station
CLOSE
Current Station
Personal Weather Station
Location: Bella Vista, CA
Elevation: 696 ft
Nearby Weather Stations

Elev 696 ft 40.64 °N, 122.23 °W | Updated 5 seconds ago

Mostly Cloudy
Mostly Cloudy
36.5 °F
Feels Like 36 °F
N
0.0
Wind Variable Wind from SSW
Gusts 0.0 mph

Today
High -- | Low -- °F
--% Chance of Precip.
Yesterday
High -- | Low -- °F
Precip. -- in
7:31 AM 4:47 PM
Waxing Crescent, 46% visible
Pressure 30.38 in
Visibility 10.0 miles
Clouds Mostly Cloudy 11000 ft
Windchill 36 °F
Dew Point 34 °F
Humidity 89%
Rainfall 0.00 in
Snow Depth Not available.
UV 0 out of 12
Pollen 3.00 out of 12
Air Quality Not available.
Flu Activity Not available.
METAR KRDD 280853Z AUTO 00000KT 10SM BKN110 03/01 A3037 RMK AO2 SLP286 T00330011 58003

More Conditions Fewer Conditions

Pressure 30.38 in
Visibility 10.0 miles
Clouds Mostly Cloudy 11000 ft
Windchill 36 °F
Dew Point 34 °F
Humidity 89%
Rainfall 0.00 in
Snow Depth Not available.
UV 0 out of 12
Pollen 3.00 out of 12
Air Quality Not available.
Flu Activity Not available.
METAR KRDD 280853Z AUTO 00000KT 10SM BKN110 03/01 A3037 RMK AO2 SLP286 T00330011 58003

More Conditions Fewer Conditions

10-Day Weather Forecast

Almanac

Astronomy

Dec. 28, 2014 Rise Set
Actual Time
Civil Twilight
Nautical Twilight
Astronomical Twilight
Moon
Length of Visible Light
Length of Day
Tomorrow will be .
, % of the Moon is Illuminated

Today's Extremes

State Highs State Lows

Community

WunderPhotos

Upload Photos

1,781,208 photos uploaded!

WunderBlogs® & News

Nearby

Air Quality

  Air Quality AQ Index Pollutant
Not available.

Snow Depth

Station Depth Elevation

Earthquake Activity

City Distance Mag. Time & Date
Minimum magnitude displayed is 2.5.

Coastal Water Temperatures

Place Temperature

Nearby Weather Stations